Time;durP1;ratioP1;P1;durP2;ratioP2;P2;SDS_P1;SDS_P2;PMS_P1;PMS_P2;Temp;Humidity;BMP_temperature;BMP_pressure;BME280_temperature;BME280_humidity;BME280_pressure;Samples;Min_cycle;Max_cycle;Signal;HPM_P1;HPM_P2
2023/05/21 00:00:07;;;;;;;6.00;1.83;;;16.40;63.80;;;;;;5011722;28;20221;-53
2023/05/21 00:02:37;;;;;;;3.42;1.20;;;16.40;63.90;;;;;;5011294;28;20710;-56
2023/05/21 00:05:10;;;;;;;3.58;1.35;;;16.40;63.90;;;;;;5011712;28;20201;-56
2023/05/21 00:07:43;;;;;;;2.97;1.48;;;16.40;63.90;;;;;;5012099;28;20204;-56
2023/05/21 00:10:14;;;;;;;2.38;1.60;;;16.50;64.10;;;;;;5011300;28;20228;-54
2023/05/21 00:12:44;;;;;;;2.78;1.50;;;16.50;64.10;;;;;;5011458;28;20201;-52
2023/05/21 00:15:15;;;;;;;3.35;1.30;;;16.50;64.10;;;;;;5011380;28;20227;-55
2023/05/21 00:17:48;;;;;;;1.80;1.45;;;16.50;64.00;;;;;;5011797;28;20700;-56
2023/05/21 00:20:19;;;;;;;2.58;1.58;;;16.50;64.00;;;;;;5011940;28;20216;-58
2023/05/21 00:22:51;;;;;;;3.55;1.95;;;16.60;64.10;;;;;;5010980;28;20201;-48
2023/05/21 00:25:22;;;;;;;3.58;2.10;;;16.60;64.00;;;;;;5011101;28;20185;-53
2023/05/21 00:27:52;;;;;;;2.60;1.80;;;16.60;64.10;;;;;;5011377;28;20669;-47
2023/05/21 00:30:23;;;;;;;4.22;1.67;;;16.60;65.10;;;;;;5012247;28;20227;-55
2023/05/21 00:32:54;;;;;;;3.47;1.65;;;16.60;64.20;;;;;;5011374;28;20685;-58
2023/05/21 00:35:24;;;;;;;2.30;1.40;;;16.60;64.10;;;;;;5011278;28;20544;-49
2023/05/21 00:37:57;;;;;;;3.72;1.60;;;16.60;64.20;;;;;;5011399;28;20684;-50
2023/05/21 00:40:27;;;;;;;3.25;2.03;;;16.70;64.30;;;;;;5011442;28;20743;-57
2023/05/21 00:42:58;;;;;;;2.78;1.58;;;16.70;64.20;;;;;;5010552;28;20205;-50
2023/05/21 00:45:29;;;;;;;3.03;1.67;;;16.70;64.30;;;;;;5011515;28;20205;-53
2023/05/21 00:48:00;;;;;;;5.18;1.67;;;16.70;64.20;;;;;;5012124;28;20197;-53
2023/05/21 00:50:31;;;;;;;3.85;1.70;;;16.70;64.20;;;;;;5011099;28;20307;-55
2023/05/21 00:53:03;;;;;;;2.70;1.58;;;16.80;64.20;;;;;;5011176;28;20228;-52
2023/05/21 00:55:34;;;;;;;2.65;2.00;;;16.80;64.10;;;;;;5010548;28;20213;-49
2023/05/21 00:58:05;;;;;;;2.70;1.60;;;16.80;64.10;;;;;;5010612;28;20228;-48
2023/05/21 01:00:36;;;;;;;1.90;1.45;;;16.80;64.00;;;;;;5009890;28;20695;-53
2023/05/21 01:03:07;;;;;;;2.75;1.90;;;16.80;64.00;;;;;;5007831;28;20307;-54
2023/05/21 01:05:39;;;;;;;4.25;1.83;;;16.80;64.10;;;;;;5010715;28;20263;-51
2023/05/21 01:08:12;;;;;;;3.13;2.05;;;16.80;63.90;;;;;;5011126;28;20561;-54
2023/05/21 01:10:43;;;;;;;3.92;1.73;;;16.90;64.00;;;;;;5011685;28;20224;-52
2023/05/21 01:13:14;;;;;;;3.63;1.73;;;16.90;64.00;;;;;;5010467;28;20212;-50
2023/05/21 01:15:45;;;;;;;2.97;1.52;;;16.90;64.00;;;;;;5011628;28;20207;-52
2023/05/21 01:18:18;;;;;;;3.65;1.70;;;16.90;64.00;;;;;;5010458;28;20236;-52
2023/05/21 01:20:49;;;;;;;2.85;1.88;;;16.90;64.00;;;;;;5010891;28;20678;-51
2023/05/21 01:23:22;;;;;;;4.25;1.95;;;16.90;64.00;;;;;;5010117;28;20603;-52
2023/05/21 01:25:53;;;;;;;3.97;2.05;;;17.00;64.00;;;;;;5011041;28;20192;-56
2023/05/21 01:28:24;;;;;;;3.53;1.50;;;17.00;64.00;;;;;;5010484;28;20200;-56
2023/05/21 01:30:54;;;;;;;3.90;2.03;;;17.00;63.90;;;;;;5010390;28;20230;-54
2023/05/21 01:33:31;;;;;;;3.05;1.83;;;17.00;64.00;;;;;;5010365;28;20189;-55
2023/05/21 01:36:07;;;;;;;2.10;1.60;;;17.00;63.90;;;;;;5010524;28;20192;-53
2023/05/21 01:38:43;;;;;;;3.55;1.50;;;17.00;63.90;;;;;;5010805;28;20197;-56
2023/05/21 01:41:14;;;;;;;2.20;1.60;;;17.10;63.80;;;;;;4990548;28;20701;-52
2023/05/21 01:43:47;;;;;;;2.10;1.42;;;17.10;63.80;;;;;;5010598;28;20201;-49
2023/05/21 01:46:22;;;;;;;4.15;1.80;;;17.10;63.90;;;;;;5010473;28;20223;-52
2023/05/21 01:48:56;;;;;;;3.83;1.70;;;17.10;63.80;;;;;;4991402;28;20189;-55
2023/05/21 01:51:27;;;;;;;2.83;1.75;;;17.10;63.80;;;;;;4990296;28;20249;-52
2023/05/21 01:54:00;;;;;;;1.98;1.60;;;17.10;63.80;;;;;;5010052;28;20201;-50
2023/05/21 01:56:32;;;;;;;2.10;1.48;;;17.10;63.80;;;;;;5010304;28;20212;-51
2023/05/21 01:59:03;;;;;;;2.20;1.50;;;17.10;63.80;;;;;;5010624;28;20228;-53
2023/05/21 02:01:34;;;;;;;3.20;2.10;;;17.20;63.80;;;;;;5010823;28;20263;-50
2023/05/21 02:04:04;;;;;;;2.05;1.65;;;17.20;63.90;;;;;;5010006;28;20200;-50
2023/05/21 02:06:35;;;;;;;3.22;1.75;;;17.20;63.80;;;;;;5010759;28;20208;-55
2023/05/21 02:09:08;;;;;;;3.65;1.63;;;17.20;63.80;;;;;;5010357;28;20608;-52
2023/05/21 02:11:39;;;;;;;2.72;1.60;;;17.20;63.80;;;;;;5009801;28;20205;-54
2023/05/21 02:14:12;;;;;;;4.20;1.65;;;17.20;63.70;;;;;;5010649;28;20559;-55
2023/05/21 02:16:43;;;;;;;2.50;1.60;;;17.30;63.80;;;;;;5010895;28;20650;-54
2023/05/21 02:19:14;;;;;;;1.77;1.55;;;17.30;63.80;;;;;;5009863;28;20661;-56
2023/05/21 02:21:44;;;;;;;3.03;1.63;;;17.30;63.80;;;;;;5009967;28;20197;-56
2023/05/21 02:24:17;;;;;;;3.28;1.60;;;17.30;63.70;;;;;;5010284;28;20200;-55
2023/05/21 02:26:49;;;;;;;3.72;1.60;;;17.30;63.70;;;;;;5009185;28;20235;-55
2023/05/21 02:29:20;;;;;;;2.72;1.50;;;17.30;63.70;;;;;;5009091;28;20207;-51
2023/05/21 02:31:50;;;;;;;2.90;1.65;;;17.40;63.70;;;;;;5011979;28;20204;-55
2023/05/21 02:34:21;;;;;;;2.10;1.40;;;17.40;63.60;;;;;;5013522;28;20201;-55
2023/05/21 02:36:53;;;;;;;2.15;1.58;;;17.40;63.60;;;;;;5011607;28;20305;-55
2023/05/21 02:39:25;;;;;;;2.70;1.40;;;17.40;63.60;;;;;;5013523;28;20200;-54
2023/05/21 02:41:56;;;;;;;1.77;1.30;;;17.40;63.60;;;;;;5013108;28;20197;-52
2023/05/21 02:44:27;;;;;;;2.88;1.48;;;17.40;63.60;;;;;;5012857;28;20204;-56
2023/05/21 02:46:57;;;;;;;2.55;1.60;;;17.40;63.60;;;;;;5013215;28;20201;-53
2023/05/21 02:49:28;;;;;;;2.05;1.38;;;17.40;63.50;;;;;;5013108;28;20205;-56
2023/05/21 02:51:58;;;;;;;2.53;1.67;;;17.40;63.50;;;;;;5013294;28;20602;-57
2023/05/21 02:54:31;;;;;;;1.50;1.33;;;17.40;63.50;;;;;;5012639;28;20200;-56
2023/05/21 02:57:02;;;;;;;2.33;1.17;;;17.50;63.50;;;;;;5012737;28;20243;-56
2023/05/21 02:59:32;;;;;;;2.22;1.20;;;17.50;63.60;;;;;;5012737;28;20290;-56
2023/05/21 03:02:03;;;;;;;2.78;1.55;;;17.50;63.50;;;;;;5012750;28;20223;-51
2023/05/21 03:04:37;;;;;;;1.83;1.17;;;17.50;63.50;;;;;;5013357;28;20657;-56
2023/05/21 03:07:08;;;;;;;2.63;1.40;;;17.60;63.60;;;;;;5013305;28;20618;-51
2023/05/21 03:09:41;;;;;;;2.30;1.45;;;17.60;63.60;;;;;;5013575;28;20228;-51
2023/05/21 03:12:12;;;;;;;2.50;1.60;;;17.60;63.60;;;;;;5012786;28;20291;-56
2023/05/21 03:14:43;;;;;;;1.92;1.40;;;17.60;63.50;;;;;;5013136;28;20197;-52
2023/05/21 03:17:15;;;;;;;2.90;1.63;;;17.60;63.50;;;;;;5012430;28;20314;-54
2023/05/21 03:19:47;;;;;;;1.42;1.20;;;17.60;63.40;;;;;;5012406;28;20221;-55
2023/05/21 03:22:18;;;;;;;2.63;1.70;;;17.60;63.40;;;;;;5012395;28;20720;-52
2023/05/21 03:24:52;;;;;;;2.53;1.23;;;17.60;63.30;;;;;;5013132;28;20686;-54
2023/05/21 03:27:22;;;;;;;2.90;1.67;;;17.60;63.30;;;;;;4995439;28;20288;-54
2023/05/21 03:29:54;;;;;;;2.15;1.60;;;17.60;63.30;;;;;;5012884;28;20584;-50
2023/05/21 03:32:25;;;;;;;1.55;1.45;;;17.60;63.30;;;;;;5011827;28;20839;-52
2023/05/21 03:34:58;;;;;;;2.50;1.60;;;17.70;63.30;;;;;;5012656;28;20664;-54
2023/05/21 03:37:29;;;;;;;2.38;1.42;;;17.70;63.30;;;;;;5012106;28;20232;-50
2023/05/21 03:40:02;;;;;;;1.65;1.50;;;17.70;63.30;;;;;;5011661;28;20221;-49
2023/05/21 03:42:32;;;;;;;1.45;1.35;;;17.70;63.30;;;;;;5010887;28;20193;-54
2023/05/21 03:45:03;;;;;;;3.22;1.42;;;17.70;63.30;;;;;;5012176;28;20193;-52
2023/05/21 03:47:34;;;;;;;2.10;1.40;;;17.70;63.20;;;;;;5012711;28;20224;-53
2023/05/21 03:50:06;;;;;;;1.80;1.33;;;17.70;63.20;;;;;;5012233;28;20226;-54
2023/05/21 03:52:36;;;;;;;2.58;1.55;;;17.70;63.20;;;;;;5012521;28;20225;-52
2023/05/21 03:55:09;;;;;;;1.20;1.10;;;17.70;63.20;;;;;;5011835;28;20201;-53
2023/05/21 03:57:40;;;;;;;2.45;1.60;;;17.70;63.10;;;;;;5012400;28;20228;-49
2023/05/21 04:00:11;;;;;;;2.45;1.50;;;17.70;63.20;;;;;;5012144;28;20213;-54
2023/05/21 04:02:42;;;;;;;2.30;1.45;;;17.80;63.20;;;;;;5009793;28;20602;-50
2023/05/21 04:05:13;;;;;;;1.40;1.30;;;17.80;63.10;;;;;;5012127;28;20667;-51
2023/05/21 04:07:45;;;;;;;2.45;1.77;;;17.80;63.00;;;;;;5011901;28;20696;-54
2023/05/21 04:10:17;;;;;;;2.50;1.60;;;17.80;63.00;;;;;;5012199;28;20225;-53
2023/05/21 04:12:51;;;;;;;2.13;1.70;;;17.80;63.00;;;;;;5011552;28;20193;-50
2023/05/21 04:15:23;;;;;;;1.90;1.70;;;17.80;62.90;;;;;;5011543;28;20196;-52
2023/05/21 04:17:53;;;;;;;2.60;1.50;;;17.80;62.90;;;;;;5011876;28;20221;-53
2023/05/21 04:20:24;;;;;;;1.50;1.40;;;17.80;62.90;;;;;;5011601;28;20224;-52
2023/05/21 04:22:55;;;;;;;1.98;1.70;;;17.80;62.80;;;;;;5011510;28;20189;-54
2023/05/21 04:25:28;;;;;;;2.05;1.20;;;17.80;62.80;;;;;;5011867;28;20685;-51
2023/05/21 04:27:58;;;;;;;2.13;1.70;;;17.80;62.80;;;;;;5011556;28;20196;-49
2023/05/21 04:30:29;;;;;;;1.65;1.50;;;17.80;62.90;;;;;;5011648;28;20223;-54
2023/05/21 04:33:00;;;;;;;2.22;1.50;;;17.80;62.80;;;;;;5011138;28;20200;-55
2023/05/21 04:35:30;;;;;;;2.03;1.67;;;17.80;62.80;;;;;;5011455;28;20204;-54
2023/05/21 04:38:01;;;;;;;2.42;1.75;;;17.80;62.80;;;;;;5011511;28;20580;-51
2023/05/21 04:40:33;;;;;;;3.25;1.80;;;17.80;62.80;;;;;;5011217;28;20221;-51
2023/05/21 04:43:04;;;;;;;1.85;1.55;;;17.80;62.80;;;;;;5011208;28;20193;-51
2023/05/21 04:45:34;;;;;;;1.67;1.40;;;17.80;62.70;;;;;;5011150;28;20201;-50
2023/05/21 04:48:06;;;;;;;2.35;1.80;;;17.80;62.70;;;;;;5010613;28;20193;-54
2023/05/21 04:50:37;;;;;;;2.30;1.50;;;17.80;62.70;;;;;;5011078;28;20224;-52
2023/05/21 04:53:08;;;;;;;1.92;1.42;;;17.80;62.70;;;;;;5010015;28;20193;-55
2023/05/21 04:55:41;;;;;;;1.88;1.50;;;17.80;62.60;;;;;;5011506;28;20200;-51
2023/05/21 04:58:11;;;;;;;2.38;1.58;;;17.90;62.70;;;;;;5010433;28;20221;-56
2023/05/21 05:00:44;;;;;;;2.42;1.67;;;17.80;62.60;;;;;;5011650;28;20692;-49
2023/05/21 05:03:15;;;;;;;10.90;5.82;;;17.80;62.70;;;;;;5010382;28;20276;-57
2023/05/21 05:05:46;;;;;;;8.70;4.35;;;17.80;61.60;;;;;;5010700;28;20679;-56
2023/05/21 05:08:17;;;;;;;14.23;10.68;;;17.80;60.20;;;;;;5011038;28;20196;-55
2023/05/21 05:10:49;;;;;;;25.92;19.55;;;17.70;59.70;;;;;;5010420;28;20627;-55
2023/05/21 05:13:20;;;;;;;31.88;26.15;;;17.60;59.30;;;;;;5009823;28;20200;-55
2023/05/21 05:15:51;;;;;;;26.20;20.08;;;17.50;59.10;;;;;;5010454;28;20205;-56
2023/05/21 05:18:21;;;;;;;19.40;15.07;;;17.30;59.00;;;;;;5010598;28;20287;-55
2023/05/21 05:20:52;;;;;;;16.40;12.70;;;17.30;59.00;;;;;;5010988;28;20698;-56
2023/05/21 05:23:23;;;;;;;19.42;16.13;;;17.20;59.00;;;;;;5008744;28;20200;-55
2023/05/21 05:25:55;;;;;;;12.48;8.70;;;17.00;59.00;;;;;;5010298;28;20201;-55
2023/05/21 05:28:26;;;;;;;12.13;8.93;;;16.90;59.00;;;;;;5010497;28;20192;-54
2023/05/21 05:30:56;;;;;;;33.25;26.27;;;16.80;59.10;;;;;;5010082;28;20226;-54
2023/05/21 05:33:27;;;;;;;27.40;24.17;;;16.70;59.20;;;;;;5010021;28;20193;-57
2023/05/21 05:35:58;;;;;;;17.55;12.85;;;16.60;59.30;;;;;;5011492;28;20700;-54
2023/05/21 05:38:29;;;;;;;15.60;11.02;;;16.50;59.30;;;;;;5009971;28;20220;-51
2023/05/21 05:41:01;;;;;;;16.35;11.27;;;16.40;59.30;;;;;;5010707;28;20225;-54
2023/05/21 05:43:32;;;;;;;160.88;86.30;;;16.30;59.40;;;;;;5010512;28;20208;-55
2023/05/21 05:46:02;;;;;;;175.57;94.55;;;16.20;59.60;;;;;;5010597;28;20288;-55
2023/05/21 05:48:33;;;;;;;103.20;55.63;;;16.10;59.70;;;;;;5010385;28;20615;-55
2023/05/21 05:51:04;;;;;;;34.70;24.33;;;16.10;60.00;;;;;;5010138;28;20232;-55
2023/05/21 05:53:34;;;;;;;120.88;69.25;;;15.90;60.00;;;;;;5008538;28;20192;-51
2023/05/21 05:56:07;;;;;;;311.42;164.63;;;15.90;60.40;;;;;;5010023;28;20201;-54
2023/05/21 05:58:38;;;;;;;256.83;140.45;;;15.80;60.60;;;;;;5010441;28;20227;-54
2023/05/21 06:01:08;;;;;;;82.00;48.15;;;15.70;60.80;;;;;;5010113;28;20221;-52
2023/05/21 06:03:39;;;;;;;110.53;63.20;;;15.60;61.60;;;;;;5010313;28;20209;-55
2023/05/21 06:06:10;;;;;;;122.00;70.75;;;15.60;62.50;;;;;;5013057;28;20196;-51
2023/05/21 06:08:41;;;;;;;121.93;70.00;;;15.60;62.60;;;;;;5013017;28;20200;-53
2023/05/21 06:11:15;;;;;;;117.70;67.55;;;15.70;62.70;;;;;;4994890;28;20305;-52
2023/05/21 06:13:46;;;;;;;117.22;68.88;;;15.70;62.80;;;;;;4999116;28;20279;-51
2023/05/21 06:16:18;;;;;;;113.00;67.80;;;15.80;62.90;;;;;;5013188;28;20228;-54
2023/05/21 06:18:49;;;;;;;117.45;69.93;;;15.80;62.80;;;;;;5014024;28;20229;-48
2023/05/21 06:21:19;;;;;;;114.65;69.10;;;15.90;62.80;;;;;;5014805;28;20299;-54
2023/05/21 06:23:50;;;;;;;113.88;66.65;;;15.90;62.70;;;;;;5013580;28;20189;-54
2023/05/21 06:26:23;;;;;;;105.97;65.72;;;16.00;62.60;;;;;;5014452;28;20193;-56
2023/05/21 06:28:53;;;;;;;102.90;62.08;;;16.00;62.60;;;;;;5013319;28;20195;-56
2023/05/21 06:31:24;;;;;;;107.43;63.60;;;16.10;62.50;;;;;;5013896;28;20220;-55
2023/05/21 06:33:54;;;;;;;102.95;61.50;;;16.10;62.50;;;;;;5013827;28;20246;-55
2023/05/21 06:36:28;;;;;;;98.32;61.33;;;16.10;62.40;;;;;;5012510;28;20240;-54
2023/05/21 06:38:59;;;;;;;102.53;60.63;;;16.20;62.40;;;;;;5013603;28;20225;-55
2023/05/21 06:41:32;;;;;;;97.60;58.85;;;16.20;62.40;;;;;;5013332;28;20221;-58
2023/05/21 06:44:02;;;;;;;92.78;56.60;;;16.30;62.40;;;;;;5014168;28;20189;-53
2023/05/21 06:46:34;;;;;;;88.75;56.35;;;16.30;62.40;;;;;;5012953;28;20197;-57
2023/05/21 06:49:05;;;;;;;89.47;54.92;;;16.30;62.30;;;;;;5013739;28;20252;-56
2023/05/21 06:51:36;;;;;;;88.85;55.33;;;16.30;62.40;;;;;;5011773;28;20217;-55
2023/05/21 06:54:07;;;;;;;85.03;54.15;;;16.40;62.40;;;;;;5012800;28;20228;-54
2023/05/21 06:56:40;;;;;;;81.70;52.75;;;16.40;62.30;;;;;;5012942;28;20224;-57
2023/05/21 06:59:10;;;;;;;84.90;52.20;;;16.40;62.30;;;;;;5012858;28;20217;-54
2023/05/21 07:01:43;;;;;;;85.28;52.72;;;16.50;62.30;;;;;;5012749;28;20197;-52
2023/05/21 07:04:13;;;;;;;81.93;52.03;;;16.50;62.20;;;;;;5013385;28;20331;-49
2023/05/21 07:06:44;;;;;;;80.97;51.50;;;16.50;62.20;;;;;;5013079;28;20205;-52
2023/05/21 07:09:15;;;;;;;79.68;50.20;;;16.50;62.10;;;;;;5012886;28;20911;-54
2023/05/21 07:11:47;;;;;;;78.53;49.65;;;16.60;62.10;;;;;;5013377;28;20292;-58
2023/05/21 07:14:18;;;;;;;76.65;48.63;;;16.60;62.10;;;;;;5012914;28;20650;-57
2023/05/21 07:16:49;;;;;;;71.65;45.72;;;16.60;62.10;;;;;;5012869;28;20203;-56
2023/05/21 07:19:19;;;;;;;67.55;45.90;;;16.60;62.00;;;;;;5013226;28;20230;-51
2023/05/21 07:21:50;;;;;;;68.25;45.03;;;16.60;62.00;;;;;;5011469;28;20197;-54
2023/05/21 07:24:21;;;;;;;71.80;46.05;;;16.60;62.00;;;;;;5012163;28;20185;-58
2023/05/21 07:26:53;;;;;;;70.68;46.03;;;16.60;62.00;;;;;;5012466;28;20200;-50
2023/05/21 07:29:24;;;;;;;67.40;42.55;;;16.60;61.90;;;;;;5012619;28;20201;-56
2023/05/21 07:31:54;;;;;;;61.70;42.58;;;16.70;61.90;;;;;;5012402;28;20197;-53
2023/05/21 07:34:25;;;;;;;58.45;40.22;;;16.70;61.90;;;;;;5012984;28;20197;-52
2023/05/21 07:36:56;;;;;;;58.97;40.53;;;16.70;61.90;;;;;;5012438;28;20200;-55
2023/05/21 07:39:26;;;;;;;61.95;41.22;;;16.70;61.80;;;;;;5012895;28;20690;-53
2023/05/21 07:41:59;;;;;;;61.50;41.03;;;16.70;61.80;;;;;;5012909;28;20271;-51
2023/05/21 07:44:30;;;;;;;62.05;41.70;;;16.70;61.80;;;;;;5012926;28;20816;-53
2023/05/21 07:47:01;;;;;;;59.40;40.58;;;16.70;61.80;;;;;;5012695;28;20259;-53
2023/05/21 07:49:32;;;;;;;59.28;39.88;;;16.70;61.80;;;;;;5011506;28;20575;-54
2023/05/21 07:52:02;;;;;;;57.17;38.78;;;16.70;61.70;;;;;;5012413;28;20197;-56
2023/05/21 07:54:33;;;;;;;57.05;38.85;;;16.70;61.70;;;;;;5012845;28;20627;-56
2023/05/21 07:57:06;;;;;;;57.40;37.35;;;16.70;61.60;;;;;;5013224;28;20201;-56
2023/05/21 08:03:05;;;;;;;55.45;36.45;;;16.70;61.50;;;;;;4964615;28;20219;-56
2023/05/21 08:05:36;;;;;;;54.72;36.38;;;16.70;61.40;;;;;;5011910;28;20203;-54
2023/05/21 08:08:06;;;;;;;56.47;37.10;;;16.70;61.40;;;;;;5012271;28;20685;-58
2023/05/21 08:10:37;;;;;;;49.90;35.53;;;16.70;61.50;;;;;;5012469;28;20590;-55
2023/05/21 08:13:10;;;;;;;49.22;34.67;;;16.70;61.50;;;;;;5012692;28;20684;-53
2023/05/21 08:15:41;;;;;;;52.92;37.05;;;16.70;61.50;;;;;;5012668;28;20204;-54
2023/05/21 08:18:11;;;;;;;49.50;33.30;;;16.70;61.50;;;;;;5012499;28;20608;-56
2023/05/21 08:20:42;;;;;;;53.28;35.92;;;16.70;61.50;;;;;;5011711;28;20224;-54
2023/05/21 08:23:13;;;;;;;47.78;32.60;;;16.70;61.50;;;;;;5012123;28;20197;-56
2023/05/21 08:25:43;;;;;;;46.35;32.03;;;16.70;61.50;;;;;;5012180;28;20232;-55
2023/05/21 08:28:16;;;;;;;47.15;33.22;;;16.70;61.40;;;;;;5011178;28;20197;-53
2023/05/21 08:30:46;;;;;;;46.40;31.70;;;16.70;61.50;;;;;;5012091;28;20220;-56
2023/05/21 08:33:17;;;;;;;46.45;32.85;;;16.70;61.40;;;;;;5012244;28;20200;-56
2023/05/21 08:35:48;;;;;;;43.58;30.02;;;16.70;61.40;;;;;;5011762;28;20209;-57
2023/05/21 08:38:21;;;;;;;44.92;30.60;;;16.70;61.40;;;;;;5012198;28;20267;-66
2023/05/21 08:40:55;;;;;;;46.58;30.60;;;16.70;61.40;;;;;;5011505;28;20631;-55
2023/05/21 08:43:29;;;;;;;42.40;29.65;;;16.70;61.40;;;;;;5011464;28;20212;-57
2023/05/21 08:46:02;;;;;;;45.28;30.92;;;16.70;61.40;;;;;;5011534;28;20251;-57
2023/05/21 08:48:33;;;;;;;43.47;30.48;;;16.70;61.30;;;;;;5011842;28;20213;-54
2023/05/21 08:51:04;;;;;;;41.03;27.65;;;16.70;61.30;;;;;;5010970;28;20223;-56
2023/05/21 08:53:36;;;;;;;39.15;27.83;;;16.70;61.40;;;;;;5011793;28;20215;-55
2023/05/21 08:56:08;;;;;;;41.00;27.80;;;16.60;61.30;;;;;;5010934;28;20203;-57
2023/05/21 08:58:41;;;;;;;41.15;27.85;;;16.60;61.20;;;;;;5011194;28;20217;-59
2023/05/21 09:01:13;;;;;;;40.00;26.67;;;16.60;61.30;;;;;;5011478;28;20584;-55
2023/05/21 09:03:44;;;;;;;36.88;25.80;;;16.70;61.40;;;;;;5011212;28;20232;-53
2023/05/21 09:06:15;;;;;;;36.53;25.50;;;16.60;61.20;;;;;;5011408;28;20204;-55
2023/05/21 09:08:49;;;;;;;37.53;25.42;;;16.60;61.30;;;;;;5011321;28;20279;-58
2023/05/21 09:11:20;;;;;;;36.78;25.25;;;16.60;61.20;;;;;;5010982;28;20271;-57
2023/05/21 09:13:55;;;;;;;37.90;26.55;;;16.60;61.30;;;;;;5011547;28;20201;-55
2023/05/21 09:16:25;;;;;;;34.17;25.08;;;16.60;61.20;;;;;;5011469;28;20196;-55
2023/05/21 09:18:56;;;;;;;37.72;24.75;;;16.60;61.10;;;;;;5010660;28;20220;-53
2023/05/21 09:21:27;;;;;;;34.13;24.63;;;16.60;61.10;;;;;;5011225;28;20228;-57
2023/05/21 09:23:59;;;;;;;35.20;24.15;;;16.60;61.10;;;;;;5011249;28;20601;-55
2023/05/21 09:26:29;;;;;;;34.63;23.50;;;16.60;61.10;;;;;;5010738;28;20569;-55
2023/05/21 09:29:02;;;;;;;33.88;24.35;;;16.60;61.00;;;;;;5010766;28;20200;-58
2023/05/21 09:31:33;;;;;;;32.53;23.30;;;16.50;61.00;;;;;;5009851;28;20220;-57
2023/05/21 09:34:04;;;;;;;33.50;23.05;;;16.50;61.00;;;;;;5009908;28;20224;-52
2023/05/21 09:36:38;;;;;;;32.95;22.63;;;16.50;61.00;;;;;;5011068;28;20649;-57
2023/05/21 09:39:10;;;;;;;29.95;22.25;;;16.50;61.00;;;;;;5011795;28;20231;-54
2023/05/21 09:41:43;;;;;;;31.58;21.70;;;16.50;61.00;;;;;;5015575;28;20228;-54
2023/05/21 09:44:16;;;;;;;31.00;21.13;;;16.50;61.00;;;;;;5015284;28;20203;-56
2023/05/21 09:46:46;;;;;;;32.38;21.95;;;16.50;61.00;;;;;;5015241;28;20201;-55
2023/05/21 09:49:26;;;;;;;27.20;20.30;;;16.50;61.00;;;;;;5015097;28;21046;-56
2023/05/21 09:52:00;;;;;;;29.38;20.17;;;16.50;61.00;;;;;;5014997;28;20200;-57
2023/05/21 09:54:35;;;;;;;29.20;20.42;;;16.50;61.00;;;;;;5014651;28;20201;-58
2023/05/21 09:57:06;;;;;;;28.25;19.77;;;16.40;60.90;;;;;;5013903;28;20200;-53
2023/05/21 09:59:41;;;;;;;26.33;18.83;;;16.40;60.90;;;;;;5011853;28;20232;-58
2023/05/21 10:02:23;;;;;;;28.67;20.55;;;16.40;60.90;;;;;;5013818;28;20200;-51
2023/05/21 10:04:55;;;;;;;27.90;19.55;;;16.40;60.90;;;;;;5015288;28;20217;-52
2023/05/21 10:07:27;;;;;;;26.80;18.63;;;16.40;60.90;;;;;;5013712;28;20247;-50
2023/05/21 10:09:58;;;;;;;25.55;17.77;;;16.40;61.00;;;;;;5013327;28;20279;-59
2023/05/21 10:12:31;;;;;;;27.00;18.65;;;16.40;60.90;;;;;;5013372;28;20255;-58
2023/05/21 10:15:06;;;;;;;25.60;19.52;;;16.40;60.90;;;;;;5013606;28;20189;-56
2023/05/21 10:17:37;;;;;;;28.10;19.67;;;16.40;60.90;;;;;;5014195;28;20200;-56
2023/05/21 10:20:11;;;;;;;25.15;17.95;;;16.30;60.80;;;;;;5013257;28;20236;-56
2023/05/21 10:22:42;;;;;;;25.67;17.95;;;16.40;60.90;;;;;;5013059;28;20552;-53
2023/05/21 10:25:14;;;;;;;25.70;18.00;;;16.30;60.80;;;;;;5012947;28;20188;-51
2023/05/21 10:27:45;;;;;;;24.55;17.35;;;16.30;60.80;;;;;;5013624;28;20199;-49
2023/05/21 10:30:19;;;;;;;25.08;17.38;;;16.30;61.60;;;;;;5013832;28;20221;-51
2023/05/21 10:32:50;;;;;;;22.77;16.48;;;16.30;60.80;;;;;;5014597;28;20196;-54
2023/05/21 10:35:21;;;;;;;23.25;17.00;;;16.30;60.80;;;;;;5012874;28;20708;-55
2023/05/21 10:37:54;;;;;;;25.17;16.80;;;16.20;60.60;;;;;;5012969;28;20189;-50
2023/05/21 10:40:25;;;;;;;23.35;16.45;;;16.20;60.60;;;;;;5013905;28;20317;-52
2023/05/21 10:43:27;;;;;;;20.70;15.38;;;16.20;60.70;;;;;;5013425;28;20196;-58
2023/05/21 10:46:26;;;;;;;22.10;16.13;;;16.20;60.70;;;;;;5013175;28;20634;-51
2023/05/21 10:49:13;;;;;;;21.35;15.23;;;16.20;60.60;;;;;;5006159;28;20200;-51
2023/05/21 10:51:55;;;;;;;19.77;14.77;;;16.20;60.60;;;;;;5011345;28;20212;-52
2023/05/21 10:54:53;;;;;;;20.50;14.23;;;16.20;60.60;;;;;;5010099;28;20189;-49
2023/05/21 10:57:49;;;;;;;20.80;14.93;;;16.20;60.70;;;;;;5013448;28;20611;-50
2023/05/21 11:00:21;;;;;;;20.33;13.73;;;16.20;60.70;;;;;;4983425;28;20239;-49
2023/05/21 11:02:54;;;;;;;19.60;14.30;;;16.20;60.80;;;;;;5013239;28;20208;-56
2023/05/21 11:05:42;;;;;;;20.23;13.80;;;16.10;60.60;;;;;;5013319;28;20649;-51
2023/05/21 11:08:25;;;;;;;18.65;13.45;;;16.10;60.60;;;;;;5013643;28;20275;-56
2023/05/21 11:10:57;;;;;;;18.25;13.43;;;16.10;60.50;;;;;;5011858;28;20231;-53
2023/05/21 11:13:30;;;;;;;18.13;13.15;;;16.10;60.50;;;;;;5012149;28;20862;-57
2023/05/21 11:16:08;;;;;;;18.75;13.13;;;16.10;60.50;;;;;;5012954;28;20208;-52
2023/05/21 11:19:02;;;;;;;16.67;11.93;;;16.10;60.50;;;;;;5012990;28;20232;-57
2023/05/21 11:21:37;;;;;;;16.05;12.10;;;16.10;60.50;;;;;;5011915;28;20244;-52
2023/05/21 11:24:09;;;;;;;19.90;13.07;;;16.00;60.40;;;;;;5012602;28;20204;-53
2023/05/21 11:27:05;;;;;;;16.98;12.13;;;16.00;60.50;;;;;;5012542;28;20205;-52
2023/05/21 11:29:41;;;;;;;15.98;11.85;;;16.00;60.50;;;;;;5012641;28;20221;-51
2023/05/21 11:32:12;;;;;;;15.50;11.20;;;16.00;60.50;;;;;;5012647;28;20205;-52
2023/05/21 11:34:46;;;;;;;16.77;12.07;;;16.00;60.50;;;;;;5013110;28;20201;-57
2023/05/21 11:37:29;;;;;;;15.85;11.75;;;16.00;60.50;;;;;;5012155;28;20293;-53
2023/05/21 11:40:17;;;;;;;15.38;11.80;;;16.00;60.50;;;;;;5012978;28;20232;-55
2023/05/21 11:42:52;;;;;;;15.68;11.77;;;16.00;60.50;;;;;;5013276;28;20277;-56
2023/05/21 11:45:25;;;;;;;15.23;10.63;;;16.00;60.50;;;;;;5011864;28;20306;-53
2023/05/21 11:47:57;;;;;;;16.98;11.35;;;16.00;60.50;;;;;;5012601;28;20875;-52
2023/05/21 11:50:32;;;;;;;15.20;10.70;;;15.90;60.30;;;;;;5011847;28;20231;-55
2023/05/21 11:53:03;;;;;;;13.80;10.13;;;15.90;60.40;;;;;;5011722;28;20826;-57
2023/05/21 11:55:37;;;;;;;14.05;10.63;;;15.90;60.40;;;;;;5012062;28;20204;-54
2023/05/21 11:58:10;;;;;;;14.10;10.27;;;15.90;60.30;;;;;;5011213;28;20297;-58
2023/05/21 12:00:42;;;;;;;14.45;10.55;;;15.90;60.30;;;;;;5012398;28;20225;-52
2023/05/21 12:03:16;;;;;;;13.00;9.75;;;15.90;60.30;;;;;;5012478;28;20201;-54
2023/05/21 12:05:52;;;;;;;12.95;9.18;;;15.90;60.30;;;;;;5012352;28;20632;-55
2023/05/21 12:08:25;;;;;;;13.27;9.65;;;15.90;60.30;;;;;;5010032;28;20276;-53
2023/05/21 12:11:00;;;;;;;13.25;9.32;;;15.80;60.30;;;;;;5012065;28;20617;-55
2023/05/21 12:13:31;;;;;;;11.68;9.48;;;15.80;60.30;;;;;;5012238;28;20223;-54
2023/05/21 12:16:02;;;;;;;12.43;9.40;;;15.80;60.30;;;;;;5011211;28;20193;-59
2023/05/21 12:18:32;;;;;;;13.60;9.20;;;15.80;60.30;;;;;;5011682;28;20200;-54
2023/05/21 12:21:06;;;;;;;11.02;8.55;;;15.80;60.30;;;;;;5009944;28;20231;-54
2023/05/21 12:23:37;;;;;;;12.52;8.70;;;15.80;60.20;;;;;;5012177;28;20189;-55
2023/05/21 12:26:08;;;;;;;12.95;8.85;;;15.80;60.20;;;;;;5012032;28;20535;-55
2023/05/21 12:28:39;;;;;;;11.45;8.63;;;15.80;60.20;;;;;;5011707;28;20197;-55
2023/05/21 12:31:15;;;;;;;10.88;8.18;;;15.80;60.20;;;;;;5011536;28;20712;-52
2023/05/21 12:33:49;;;;;;;10.93;8.73;;;15.80;60.20;;;;;;5011679;28;20197;-53
2023/05/21 12:36:29;;;;;;;12.20;8.18;;;15.70;60.10;;;;;;5009149;28;20211;-58
2023/05/21 12:39:01;;;;;;;11.98;8.43;;;15.70;60.00;;;;;;5012190;28;20189;-55
2023/05/21 12:41:32;;;;;;;11.65;7.75;;;15.70;60.00;;;;;;5011617;28;20227;-53
2023/05/21 12:44:04;;;;;;;12.48;8.38;;;15.70;60.00;;;;;;5011705;28;20193;-56
2023/05/21 12:46:35;;;;;;;9.80;7.43;;;15.70;60.10;;;;;;5011619;28;20601;-57
2023/05/21 12:49:05;;;;;;;9.77;7.10;;;15.60;60.00;;;;;;5011799;28;20193;-58
2023/05/21 12:51:46;;;;;;;11.20;7.70;;;15.70;60.10;;;;;;5011337;28;20217;-59
2023/05/21 12:54:17;;;;;;;9.02;6.70;;;15.70;60.10;;;;;;5011466;28;20232;-58
2023/05/21 12:56:48;;;;;;;11.68;7.53;;;15.60;60.00;;;;;;5011873;28;20201;-55
2023/05/21 12:59:18;;;;;;;9.40;6.95;;;15.60;60.00;;;;;;5011364;28;20200;-55
2023/05/21 13:01:50;;;;;;;10.43;7.75;;;15.60;60.00;;;;;;5011547;28;20229;-56
2023/05/21 13:04:22;;;;;;;8.85;6.90;;;15.60;59.90;;;;;;5011761;28;20559;-58